Overview Statistics Trail Chart Weather Telemetry Raw packets
 

This is the latest recevied weather packets stored in our database for station/object IZ5MMH-1. If no packets are shown the sender has not sent any weather packets the latest 10 day(s).

<< 2 3 4 5 6 7 8 >>
Time Temp. Humidity Pressure Rain* Wind** Luminosity Snow
1788512124 33.89° C 34% 1019.9 hPa - - - -
1788511525 33.33° C 34% 1020 hPa - - - -
1788510925 32.78° C 36% 1019.9 hPa - - - -
1788510324 32.78° C 36% 1019.9 hPa - - - -
1788509725 32.22° C 38% 1019.9 hPa - - - -
1788509125 31.67° C 38% 1019.9 hPa - - - -
1788508524 31.11° C 40% 1019.7 hPa - - - -
1788507925 30.56° C 40% 1019.8 hPa - - - -
1788507325 30.56° C 39% 1019.7 hPa - - - -
1788506725 30.56° C 40% 1019.6 hPa - - - -
1788506125 30.56° C 39% 1019.6 hPa - - - -
1788505524 30.56° C 39% 1019.6 hPa - - - -
1788504925 31.11° C 40% 1019.4 hPa - - - -
1788504325 30.56° C 41% 1019.4 hPa - - - -
1788503724 30° C 42% 1019.4 hPa - - - -
1788503125 28.89° C 45% 1019.3 hPa - - - -
1788502525 28.33° C 48% 1019.3 hPa - - - -
1788501924 27.78° C 48% 1019.4 hPa - - - -
1788501324 26.11° C 52% 1019.2 hPa - - - -
1788500724 23.33° C 58% 1019.2 hPa - - - -
1788500124 20.56° C 60% 1019.2 hPa - - - -
1788499524 19.44° C 62% 1019.2 hPa - - - -
1788498923 18.33° C 67% 1019.2 hPa - - - -
1788498324 18.33° C 63% 1019.2 hPa - - - -
1788497723 18.33° C 63% 1019.2 hPa - - - -

* Rain since midnight (hover to see other rain measurements)
** Current wind speed in m/s (hover to see current wind gust speed)